sensor_id;sensor_type;location;lat;lon;timestamp;P1;durP1;ratioP1;P2;durP2;ratioP2
60704;SDS011;46545;38.014;-7.874;2023-02-27T00:00:35;18.50;;;9.02;;
60704;SDS011;46545;38.014;-7.874;2023-02-27T00:02:35;19.23;;;10.70;;
60704;SDS011;46545;38.014;-7.874;2023-02-27T00:04:35;21.92;;;11.35;;
60704;SDS011;46545;38.014;-7.874;2023-02-27T00:06:36;25.23;;;13.15;;
60704;SDS011;46545;38.014;-7.874;2023-02-27T00:08:36;29.67;;;15.57;;
60704;SDS011;46545;38.014;-7.874;2023-02-27T00:10:37;36.22;;;16.35;;
60704;SDS011;46545;38.014;-7.874;2023-02-27T00:12:37;38.03;;;18.13;;
60704;SDS011;46545;38.014;-7.874;2023-02-27T00:14:38;37.88;;;19.98;;
60704;SDS011;46545;38.014;-7.874;2023-02-27T00:16:38;34.95;;;18.88;;
60704;SDS011;46545;38.014;-7.874;2023-02-27T00:18:38;42.08;;;21.55;;
60704;SDS011;46545;38.014;-7.874;2023-02-27T00:20:39;39.78;;;20.00;;
60704;SDS011;46545;38.014;-7.874;2023-02-27T00:22:39;32.78;;;19.58;;
60704;SDS011;46545;38.014;-7.874;2023-02-27T00:24:40;27.02;;;12.60;;
60704;SDS011;46545;38.014;-7.874;2023-02-27T00:26:40;20.85;;;11.15;;
60704;SDS011;46545;38.014;-7.874;2023-02-27T00:28:41;15.07;;;7.85;;
60704;SDS011;46545;38.014;-7.874;2023-02-27T00:30:41;13.10;;;7.10;;
60704;SDS011;46545;38.014;-7.874;2023-02-27T00:32:42;11.75;;;5.85;;
60704;SDS011;46545;38.014;-7.874;2023-02-27T00:34:43;7.80;;;4.78;;
60704;SDS011;46545;38.014;-7.874;2023-02-27T00:36:44;7.55;;;4.43;;
60704;SDS011;46545;38.014;-7.874;2023-02-27T00:38:44;7.53;;;4.25;;
60704;SDS011;46545;38.014;-7.874;2023-02-27T00:40:44;10.77;;;5.55;;
60704;SDS011;46545;38.014;-7.874;2023-02-27T00:42:45;13.05;;;6.32;;
60704;SDS011;46545;38.014;-7.874;2023-02-27T00:44:47;14.15;;;7.72;;
60704;SDS011;46545;38.014;-7.874;2023-02-27T00:46:48;15.20;;;8.90;;
60704;SDS011;46545;38.014;-7.874;2023-02-27T00:48:48;18.35;;;8.95;;
60704;SDS011;46545;38.014;-7.874;2023-02-27T00:50:49;13.52;;;7.68;;
60704;SDS011;46545;38.014;-7.874;2023-02-27T00:52:49;16.23;;;8.40;;
60704;SDS011;46545;38.014;-7.874;2023-02-27T00:54:51;14.07;;;7.20;;
60704;SDS011;46545;38.014;-7.874;2023-02-27T00:56:52;16.35;;;7.93;;
60704;SDS011;46545;38.014;-7.874;2023-02-27T00:58:52;11.80;;;7.18;;
60704;SDS011;46545;38.014;-7.874;2023-02-27T01:00:57;13.00;;;7.38;;
60704;SDS011;46545;38.014;-7.874;2023-02-27T01:03:00;14.13;;;6.75;;
60704;SDS011;46545;38.014;-7.874;2023-02-27T01:05:01;13.80;;;7.25;;
60704;SDS011;46545;38.014;-7.874;2023-02-27T01:07:01;15.73;;;8.15;;
60704;SDS011;46545;38.014;-7.874;2023-02-27T01:09:02;14.93;;;7.32;;
60704;SDS011;46545;38.014;-7.874;2023-02-27T01:11:03;14.50;;;7.82;;
60704;SDS011;46545;38.014;-7.874;2023-02-27T01:13:05;14.98;;;8.00;;
60704;SDS011;46545;38.014;-7.874;2023-02-27T01:15:07;19.20;;;8.35;;
60704;SDS011;46545;38.014;-7.874;2023-02-27T01:17:09;16.33;;;8.70;;
60704;SDS011;46545;38.014;-7.874;2023-02-27T01:19:11;19.27;;;9.07;;
60704;SDS011;46545;38.014;-7.874;2023-02-27T01:21:11;19.25;;;9.32;;
60704;SDS011;46545;38.014;-7.874;2023-02-27T01:23:12;17.40;;;8.35;;
60704;SDS011;46545;38.014;-7.874;2023-02-27T01:25:12;18.80;;;8.93;;
60704;SDS011;46545;38.014;-7.874;2023-02-27T01:27:12;15.10;;;8.30;;
60704;SDS011;46545;38.014;-7.874;2023-02-27T01:29:13;17.75;;;9.27;;
60704;SDS011;46545;38.014;-7.874;2023-02-27T01:31:14;17.52;;;10.15;;
60704;SDS011;46545;38.014;-7.874;2023-02-27T01:33:15;17.70;;;9.52;;
60704;SDS011;46545;38.014;-7.874;2023-02-27T01:35:15;15.90;;;8.02;;
60704;SDS011;46545;38.014;-7.874;2023-02-27T01:37:17;14.35;;;7.68;;
60704;SDS011;46545;38.014;-7.874;2023-02-27T01:39:17;16.75;;;8.82;;
60704;SDS011;46545;38.014;-7.874;2023-02-27T01:41:17;17.13;;;8.50;;
60704;SDS011;46545;38.014;-7.874;2023-02-27T01:43:19;20.02;;;8.93;;
60704;SDS011;46545;38.014;-7.874;2023-02-27T01:47:20;21.42;;;8.85;;
60704;SDS011;46545;38.014;-7.874;2023-02-27T01:49:24;14.63;;;8.27;;
60704;SDS011;46545;38.014;-7.874;2023-02-27T01:51:28;15.95;;;8.43;;
60704;SDS011;46545;38.014;-7.874;2023-02-27T01:53:31;14.75;;;7.88;;
60704;SDS011;46545;38.014;-7.874;2023-02-27T01:55:34;20.70;;;8.02;;
60704;SDS011;46545;38.014;-7.874;2023-02-27T01:57:37;14.35;;;8.60;;
60704;SDS011;46545;38.014;-7.874;2023-02-27T01:59:38;16.73;;;8.15;;
60704;SDS011;46545;38.014;-7.874;2023-02-27T02:01:40;13.02;;;8.00;;
60704;SDS011;46545;38.014;-7.874;2023-02-27T02:03:45;13.07;;;7.57;;
60704;SDS011;46545;38.014;-7.874;2023-02-27T02:05:47;17.08;;;8.85;;
60704;SDS011;46545;38.014;-7.874;2023-02-27T02:07:48;13.88;;;7.22;;
60704;SDS011;46545;38.014;-7.874;2023-02-27T02:09:50;13.27;;;7.20;;
60704;SDS011;46545;38.014;-7.874;2023-02-27T02:11:52;13.55;;;7.13;;
60704;SDS011;46545;38.014;-7.874;2023-02-27T02:13:57;12.52;;;6.85;;
60704;SDS011;46545;38.014;-7.874;2023-02-27T02:18:19;13.85;;;7.25;;
60704;SDS011;46545;38.014;-7.874;2023-02-27T02:27:05;15.00;;;8.90;;
60704;SDS011;46545;38.014;-7.874;2023-02-27T02:36:21;19.67;;;9.00;;
60704;SDS011;46545;38.014;-7.874;2023-02-27T02:42:31;23.38;;;11.88;;
60704;SDS011;46545;38.014;-7.874;2023-02-27T02:48:39;25.63;;;13.15;;
60704;SDS011;46545;38.014;-7.874;2023-02-27T02:54:48;43.72;;;23.10;;
60704;SDS011;46545;38.014;-7.874;2023-02-27T02:56:54;56.10;;;26.30;;
60704;SDS011;46545;38.014;-7.874;2023-02-27T03:03:05;83.07;;;33.72;;
60704;SDS011;46545;38.014;-7.874;2023-02-27T03:05:08;72.43;;;31.92;;
60704;SDS011;46545;38.014;-7.874;2023-02-27T03:07:20;73.50;;;31.45;;
60704;SDS011;46545;38.014;-7.874;2023-02-27T03:09:57;65.07;;;28.67;;
60704;SDS011;46545;38.014;-7.874;2023-02-27T03:11:50;49.38;;;22.60;;
60704;SDS011;46545;38.014;-7.874;2023-02-27T03:13:55;47.00;;;20.50;;
60704;SDS011;46545;38.014;-7.874;2023-02-27T03:19:16;20.00;;;10.38;;
60704;SDS011;46545;38.014;-7.874;2023-02-27T03:20:51;14.10;;;7.88;;
60704;SDS011;46545;38.014;-7.874;2023-02-27T03:22:56;8.02;;;4.78;;
60704;SDS011;46545;38.014;-7.874;2023-02-27T03:24:59;7.88;;;4.75;;
60704;SDS011;46545;38.014;-7.874;2023-02-27T03:27:01;10.50;;;4.85;;
60704;SDS011;46545;38.014;-7.874;2023-02-27T03:29:06;7.85;;;4.75;;
60704;SDS011;46545;38.014;-7.874;2023-02-27T03:31:16;12.10;;;4.70;;
60704;SDS011;46545;38.014;-7.874;2023-02-27T03:35:24;8.65;;;5.05;;
60704;SDS011;46545;38.014;-7.874;2023-02-27T03:40:00;8.10;;;4.90;;
60704;SDS011;46545;38.014;-7.874;2023-02-27T03:46:55;21.65;;;10.10;;
60704;SDS011;46545;38.014;-7.874;2023-02-27T03:48:56;24.23;;;12.20;;
60704;SDS011;46545;38.014;-7.874;2023-02-27T03:50:56;29.55;;;13.27;;
60704;SDS011;46545;38.014;-7.874;2023-02-27T03:52:56;27.55;;;15.00;;
60704;SDS011;46545;38.014;-7.874;2023-02-27T03:55:00;32.20;;;15.07;;
60704;SDS011;46545;38.014;-7.874;2023-02-27T03:57:04;33.90;;;15.32;;
60704;SDS011;46545;38.014;-7.874;2023-02-27T03:59:06;34.92;;;15.70;;
60704;SDS011;46545;38.014;-7.874;2023-02-27T04:01:08;33.90;;;16.05;;
60704;SDS011;46545;38.014;-7.874;2023-02-27T04:03:08;35.22;;;14.48;;
60704;SDS011;46545;38.014;-7.874;2023-02-27T04:05:09;31.58;;;15.25;;
60704;SDS011;46545;38.014;-7.874;2023-02-27T04:11:33;27.95;;;12.95;;
60704;SDS011;46545;38.014;-7.874;2023-02-27T04:13:49;32.42;;;14.18;;
60704;SDS011;46545;38.014;-7.874;2023-02-27T04:20:19;31.27;;;15.38;;
60704;SDS011;46545;38.014;-7.874;2023-02-27T04:26:39;31.48;;;16.00;;
60704;SDS011;46545;38.014;-7.874;2023-02-27T04:34:54;47.50;;;21.55;;
60704;SDS011;46545;38.014;-7.874;2023-02-27T04:37:06;43.80;;;21.17;;
60704;SDS011;46545;38.014;-7.874;2023-02-27T04:39:29;50.67;;;22.00;;
60704;SDS011;46545;38.014;-7.874;2023-02-27T04:41:39;44.65;;;20.33;;
60704;SDS011;46545;38.014;-7.874;2023-02-27T04:43:42;39.25;;;20.27;;
60704;SDS011;46545;38.014;-7.874;2023-02-27T04:45:46;40.60;;;18.90;;
60704;SDS011;46545;38.014;-7.874;2023-02-27T04:47:52;39.95;;;18.25;;
60704;SDS011;46545;38.014;-7.874;2023-02-27T04:49:59;35.97;;;18.52;;
60704;SDS011;46545;38.014;-7.874;2023-02-27T04:52:05;34.25;;;16.27;;
60704;SDS011;46545;38.014;-7.874;2023-02-27T04:54:15;34.40;;;15.65;;
60704;SDS011;46545;38.014;-7.874;2023-02-27T04:56:19;36.17;;;15.40;;
60704;SDS011;46545;38.014;-7.874;2023-02-27T04:58:28;28.42;;;15.50;;
60704;SDS011;46545;38.014;-7.874;2023-02-27T05:00:30;31.17;;;16.27;;
60704;SDS011;46545;38.014;-7.874;2023-02-27T05:02:32;29.15;;;15.82;;
60704;SDS011;46545;38.014;-7.874;2023-02-27T05:04:34;30.17;;;15.60;;
60704;SDS011;46545;38.014;-7.874;2023-02-27T05:06:36;30.23;;;15.43;;
60704;SDS011;46545;38.014;-7.874;2023-02-27T05:08:40;30.00;;;15.48;;
60704;SDS011;46545;38.014;-7.874;2023-02-27T05:10:45;30.67;;;14.20;;
60704;SDS011;46545;38.014;-7.874;2023-02-27T05:13:31;28.77;;;15.23;;
60704;SDS011;46545;38.014;-7.874;2023-02-27T05:15:23;40.83;;;16.02;;
60704;SDS011;46545;38.014;-7.874;2023-02-27T05:17:25;32.50;;;16.10;;
60704;SDS011;46545;38.014;-7.874;2023-02-27T05:19:29;57.28;;;19.88;;
60704;SDS011;46545;38.014;-7.874;2023-02-27T05:21:41;54.80;;;18.27;;
60704;SDS011;46545;38.014;-7.874;2023-02-27T05:28:03;33.47;;;15.57;;
60704;SDS011;46545;38.014;-7.874;2023-02-27T05:32:13;37.75;;;13.43;;
60704;SDS011;46545;38.014;-7.874;2023-02-27T05:37:04;24.77;;;12.25;;
60704;SDS011;46545;38.014;-7.874;2023-02-27T05:39:07;42.38;;;11.68;;
60704;SDS011;46545;38.014;-7.874;2023-02-27T05:41:10;56.25;;;13.98;;
60704;SDS011;46545;38.014;-7.874;2023-02-27T05:43:16;43.97;;;11.48;;
60704;SDS011;46545;38.014;-7.874;2023-02-27T05:45:22;61.42;;;11.63;;
60704;SDS011;46545;38.014;-7.874;2023-02-27T05:47:25;30.13;;;8.90;;
60704;SDS011;46545;38.014;-7.874;2023-02-27T05:49:30;87.63;;;12.95;;
60704;SDS011;46545;38.014;-7.874;2023-02-27T05:51:32;22.80;;;7.38;;
60704;SDS011;46545;38.014;-7.874;2023-02-27T05:53:36;18.42;;;7.40;;
60704;SDS011;46545;38.014;-7.874;2023-02-27T05:55:41;38.80;;;7.47;;
60704;SDS011;46545;38.014;-7.874;2023-02-27T05:57:44;17.10;;;6.85;;
60704;SDS011;46545;38.014;-7.874;2023-02-27T06:01:47;15.32;;;5.55;;
60704;SDS011;46545;38.014;-7.874;2023-02-27T06:03:47;25.80;;;7.78;;
60704;SDS011;46545;38.014;-7.874;2023-02-27T06:05:48;37.97;;;7.07;;
60704;SDS011;46545;38.014;-7.874;2023-02-27T06:07:49;15.43;;;7.20;;
60704;SDS011;46545;38.014;-7.874;2023-02-27T06:09:49;18.95;;;7.85;;
60704;SDS011;46545;38.014;-7.874;2023-02-27T06:11:50;31.73;;;9.50;;
60704;SDS011;46545;38.014;-7.874;2023-02-27T06:13:50;20.13;;;8.75;;
60704;SDS011;46545;38.014;-7.874;2023-02-27T06:15:51;22.73;;;10.15;;
60704;SDS011;46545;38.014;-7.874;2023-02-27T06:17:51;27.25;;;11.95;;
60704;SDS011;46545;38.014;-7.874;2023-02-27T06:19:52;20.95;;;10.85;;
60704;SDS011;46545;38.014;-7.874;2023-02-27T06:21:52;20.77;;;11.93;;
60704;SDS011;46545;38.014;-7.874;2023-02-27T06:23:52;25.58;;;13.68;;
60704;SDS011;46545;38.014;-7.874;2023-02-27T06:25:53;24.33;;;13.10;;
60704;SDS011;46545;38.014;-7.874;2023-02-27T06:27:53;23.33;;;13.70;;
60704;SDS011;46545;38.014;-7.874;2023-02-27T06:29:54;22.73;;;12.30;;
60704;SDS011;46545;38.014;-7.874;2023-02-27T06:31:54;24.92;;;11.93;;
60704;SDS011;46545;38.014;-7.874;2023-02-27T06:33:55;30.67;;;11.80;;
60704;SDS011;46545;38.014;-7.874;2023-02-27T06:35:55;22.60;;;11.35;;
60704;SDS011;46545;38.014;-7.874;2023-02-27T06:37:56;22.98;;;10.75;;
60704;SDS011;46545;38.014;-7.874;2023-02-27T06:39:56;35.75;;;10.85;;
60704;SDS011;46545;38.014;-7.874;2023-02-27T06:41:57;19.58;;;10.63;;
60704;SDS011;46545;38.014;-7.874;2023-02-27T06:43:57;36.47;;;9.90;;
60704;SDS011;46545;38.014;-7.874;2023-02-27T06:45:58;16.10;;;8.55;;
60704;SDS011;46545;38.014;-7.874;2023-02-27T06:47:58;21.83;;;8.95;;
60704;SDS011;46545;38.014;-7.874;2023-02-27T06:49:59;22.88;;;9.13;;
60704;SDS011;46545;38.014;-7.874;2023-02-27T06:52:00;25.40;;;9.23;;
60704;SDS011;46545;38.014;-7.874;2023-02-27T06:54:00;18.60;;;7.32;;
60704;SDS011;46545;38.014;-7.874;2023-02-27T06:56:00;11.05;;;7.22;;
60704;SDS011;46545;38.014;-7.874;2023-02-27T06:58:01;15.52;;;7.90;;
60704;SDS011;46545;38.014;-7.874;2023-02-27T07:00:02;15.85;;;7.85;;
60704;SDS011;46545;38.014;-7.874;2023-02-27T07:02:03;15.68;;;8.05;;
60704;SDS011;46545;38.014;-7.874;2023-02-27T07:04:03;11.75;;;7.63;;
60704;SDS011;46545;38.014;-7.874;2023-02-27T07:06:04;15.98;;;7.95;;
60704;SDS011;46545;38.014;-7.874;2023-02-27T07:08:04;20.52;;;8.50;;
60704;SDS011;46545;38.014;-7.874;2023-02-27T07:10:06;19.52;;;8.23;;
60704;SDS011;46545;38.014;-7.874;2023-02-27T07:12:07;20.70;;;8.85;;
60704;SDS011;46545;38.014;-7.874;2023-02-27T07:14:08;14.77;;;8.23;;
60704;SDS011;46545;38.014;-7.874;2023-02-27T07:16:08;11.52;;;8.02;;
60704;SDS011;46545;38.014;-7.874;2023-02-27T07:18:09;14.20;;;8.88;;
60704;SDS011;46545;38.014;-7.874;2023-02-27T07:20:10;16.77;;;8.82;;
60704;SDS011;46545;38.014;-7.874;2023-02-27T07:22:11;15.45;;;8.15;;
60704;SDS011;46545;38.014;-7.874;2023-02-27T07:24:12;14.27;;;7.75;;
60704;SDS011;46545;38.014;-7.874;2023-02-27T07:26:12;16.23;;;8.30;;
60704;SDS011;46545;38.014;-7.874;2023-02-27T07:28:13;13.00;;;7.35;;
60704;SDS011;46545;38.014;-7.874;2023-02-27T07:30:13;12.30;;;7.38;;
60704;SDS011;46545;38.014;-7.874;2023-02-27T07:32:14;14.82;;;8.50;;
60704;SDS011;46545;38.014;-7.874;2023-02-27T07:34:14;11.98;;;7.63;;
60704;SDS011;46545;38.014;-7.874;2023-02-27T07:36:15;16.73;;;8.63;;
60704;SDS011;46545;38.014;-7.874;2023-02-27T07:38:15;15.73;;;6.90;;
60704;SDS011;46545;38.014;-7.874;2023-02-27T07:40:18;15.85;;;7.32;;
60704;SDS011;46545;38.014;-7.874;2023-02-27T07:42:18;11.18;;;7.53;;
60704;SDS011;46545;38.014;-7.874;2023-02-27T07:44:19;18.42;;;7.50;;
60704;SDS011;46545;38.014;-7.874;2023-02-27T07:46:19;23.00;;;8.13;;
60704;SDS011;46545;38.014;-7.874;2023-02-27T07:48:22;19.73;;;7.45;;
60704;SDS011;46545;38.014;-7.874;2023-02-27T07:50:23;12.25;;;6.70;;
60704;SDS011;46545;38.014;-7.874;2023-02-27T07:52:23;18.77;;;7.32;;
60704;SDS011;46545;38.014;-7.874;2023-02-27T07:54:24;11.88;;;7.05;;
60704;SDS011;46545;38.014;-7.874;2023-02-27T07:56:25;15.88;;;7.07;;
60704;SDS011;46545;38.014;-7.874;2023-02-27T07:58:26;11.68;;;6.70;;
60704;SDS011;46545;38.014;-7.874;2023-02-27T08:00:26;16.77;;;7.60;;
60704;SDS011;46545;38.014;-7.874;2023-02-27T08:02:28;51.10;;;9.00;;
60704;SDS011;46545;38.014;-7.874;2023-02-27T08:04:28;14.57;;;6.82;;
60704;SDS011;46545;38.014;-7.874;2023-02-27T08:06:29;15.25;;;6.10;;
60704;SDS011;46545;38.014;-7.874;2023-02-27T08:08:29;19.20;;;5.93;;
60704;SDS011;46545;38.014;-7.874;2023-02-27T08:10:30;13.52;;;5.95;;
60704;SDS011;46545;38.014;-7.874;2023-02-27T08:12:30;13.35;;;5.82;;
60704;SDS011;46545;38.014;-7.874;2023-02-27T08:14:30;10.05;;;5.40;;
60704;SDS011;46545;38.014;-7.874;2023-02-27T08:16:31;10.88;;;6.30;;
60704;SDS011;46545;38.014;-7.874;2023-02-27T08:18:31;9.80;;;6.15;;
60704;SDS011;46545;38.014;-7.874;2023-02-27T08:20:32;7.93;;;5.13;;
60704;SDS011;46545;38.014;-7.874;2023-02-27T08:22:32;9.55;;;6.40;;
60704;SDS011;46545;38.014;-7.874;2023-02-27T08:24:33;8.50;;;4.68;;
60704;SDS011;46545;38.014;-7.874;2023-02-27T08:26:33;10.90;;;5.88;;
60704;SDS011;46545;38.014;-7.874;2023-02-27T08:28:33;8.13;;;5.32;;
60704;SDS011;46545;38.014;-7.874;2023-02-27T08:30:34;9.77;;;6.53;;
60704;SDS011;46545;38.014;-7.874;2023-02-27T08:32:34;9.00;;;5.20;;
60704;SDS011;46545;38.014;-7.874;2023-02-27T08:34:35;13.40;;;6.68;;
60704;SDS011;46545;38.014;-7.874;2023-02-27T08:36:36;10.07;;;5.93;;
60704;SDS011;46545;38.014;-7.874;2023-02-27T08:38:36;11.98;;;5.78;;
60704;SDS011;46545;38.014;-7.874;2023-02-27T08:40:36;12.50;;;6.40;;
60704;SDS011;46545;38.014;-7.874;2023-02-27T08:42:37;11.02;;;7.00;;
60704;SDS011;46545;38.014;-7.874;2023-02-27T08:44:37;10.05;;;7.10;;
60704;SDS011;46545;38.014;-7.874;2023-02-27T08:46:38;15.13;;;7.57;;
60704;SDS011;46545;38.014;-7.874;2023-02-27T08:48:38;15.70;;;7.03;;
60704;SDS011;46545;38.014;-7.874;2023-02-27T08:50:41;14.25;;;7.22;;
60704;SDS011;46545;38.014;-7.874;2023-02-27T08:52:42;14.20;;;6.97;;
60704;SDS011;46545;38.014;-7.874;2023-02-27T08:54:42;15.80;;;9.10;;
60704;SDS011;46545;38.014;-7.874;2023-02-27T08:56:43;11.65;;;6.70;;
60704;SDS011;46545;38.014;-7.874;2023-02-27T08:58:44;9.52;;;6.07;;
60704;SDS011;46545;38.014;-7.874;2023-02-27T09:00:44;8.10;;;4.85;;
60704;SDS011;46545;38.014;-7.874;2023-02-27T09:02:45;10.80;;;4.85;;
60704;SDS011;46545;38.014;-7.874;2023-02-27T09:04:45;5.78;;;4.60;;
60704;SDS011;46545;38.014;-7.874;2023-02-27T09:06:45;7.95;;;4.30;;
60704;SDS011;46545;38.014;-7.874;2023-02-27T09:08:46;6.90;;;4.50;;
60704;SDS011;46545;38.014;-7.874;2023-02-27T09:10:46;6.18;;;3.72;;
60704;SDS011;46545;38.014;-7.874;2023-02-27T09:12:47;5.13;;;3.97;;
60704;SDS011;46545;38.014;-7.874;2023-02-27T09:14:48;6.05;;;3.58;;
60704;SDS011;46545;38.014;-7.874;2023-02-27T09:16:48;7.38;;;3.42;;
60704;SDS011;46545;38.014;-7.874;2023-02-27T09:18:49;4.28;;;3.35;;
60704;SDS011;46545;38.014;-7.874;2023-02-27T09:20:50;5.45;;;3.83;;
60704;SDS011;46545;38.014;-7.874;2023-02-27T09:22:51;4.88;;;3.20;;
60704;SDS011;46545;38.014;-7.874;2023-02-27T09:24:51;6.45;;;3.53;;
60704;SDS011;46545;38.014;-7.874;2023-02-27T09:26:51;4.22;;;3.40;;
60704;SDS011;46545;38.014;-7.874;2023-02-27T09:28:52;4.32;;;3.50;;
60704;SDS011;46545;38.014;-7.874;2023-02-27T09:30:52;6.90;;;3.70;;
60704;SDS011;46545;38.014;-7.874;2023-02-27T09:32:53;5.25;;;3.78;;
60704;SDS011;46545;38.014;-7.874;2023-02-27T09:34:53;4.25;;;3.72;;
60704;SDS011;46545;38.014;-7.874;2023-02-27T09:36:57;6.43;;;4.30;;
60704;SDS011;46545;38.014;-7.874;2023-02-27T09:38:57;7.22;;;3.58;;
60704;SDS011;46545;38.014;-7.874;2023-02-27T09:40:59;5.63;;;3.97;;
60704;SDS011;46545;38.014;-7.874;2023-02-27T09:43:01;4.40;;;3.83;;
60704;SDS011;46545;38.014;-7.874;2023-02-27T09:45:04;8.90;;;3.70;;
60704;SDS011;46545;38.014;-7.874;2023-02-27T09:47:05;5.63;;;3.42;;
60704;SDS011;46545;38.014;-7.874;2023-02-27T09:49:10;7.97;;;3.42;;
60704;SDS011;46545;38.014;-7.874;2023-02-27T09:51:14;4.72;;;3.22;;
60704;SDS011;46545;38.014;-7.874;2023-02-27T09:53:36;4.32;;;3.13;;
60704;SDS011;46545;38.014;-7.874;2023-02-27T09:55:38;5.63;;;3.38;;
60704;SDS011;46545;38.014;-7.874;2023-02-27T09:59:44;6.55;;;2.80;;
60704;SDS011;46545;38.014;-7.874;2023-02-27T10:06:05;5.93;;;3.10;;
60704;SDS011;46545;38.014;-7.874;2023-02-27T10:12:43;8.65;;;3.47;;
60704;SDS011;46545;38.014;-7.874;2023-02-27T10:16:49;9.80;;;3.40;;
60704;SDS011;46545;38.014;-7.874;2023-02-27T10:21:02;53.75;;;9.40;;
60704;SDS011;46545;38.014;-7.874;2023-02-27T10:23:12;4.07;;;1.98;;
60704;SDS011;46545;38.014;-7.874;2023-02-27T10:25:15;2.70;;;2.13;;
60704;SDS011;46545;38.014;-7.874;2023-02-27T10:27:16;5.70;;;2.42;;
60704;SDS011;46545;38.014;-7.874;2023-02-27T10:31:23;3.30;;;1.50;;
60704;SDS011;46545;38.014;-7.874;2023-02-27T10:33:26;3.58;;;1.80;;
60704;SDS011;46545;38.014;-7.874;2023-02-27T10:35:35;3.20;;;1.75;;
60704;SDS011;46545;38.014;-7.874;2023-02-27T10:37:37;3.83;;;1.83;;
60704;SDS011;46545;38.014;-7.874;2023-02-27T10:39:46;2.38;;;1.42;;
60704;SDS011;46545;38.014;-7.874;2023-02-27T10:41:48;2.78;;;1.80;;
60704;SDS011;46545;38.014;-7.874;2023-02-27T10:43:50;4.50;;;2.05;;
60704;SDS011;46545;38.014;-7.874;2023-02-27T10:45:54;3.13;;;1.90;;
60704;SDS011;46545;38.014;-7.874;2023-02-27T10:47:54;3.08;;;1.38;;
60704;SDS011;46545;38.014;-7.874;2023-02-27T10:49:55;4.13;;;1.65;;
60704;SDS011;46545;38.014;-7.874;2023-02-27T10:52:04;2.00;;;1.20;;
60704;SDS011;46545;38.014;-7.874;2023-02-27T10:54:23;1.92;;;1.08;;
60704;SDS011;46545;38.014;-7.874;2023-02-27T10:56:25;3.83;;;1.25;;
60704;SDS011;46545;38.014;-7.874;2023-02-27T10:58:26;3.67;;;1.25;;
60704;SDS011;46545;38.014;-7.874;2023-02-27T11:02:41;2.33;;;1.23;;
60704;SDS011;46545;38.014;-7.874;2023-02-27T11:04:49;1.90;;;1.45;;
60704;SDS011;46545;38.014;-7.874;2023-02-27T11:06:53;2.25;;;1.40;;
60704;SDS011;46545;38.014;-7.874;2023-02-27T11:11:12;2.30;;;1.25;;
60704;SDS011;46545;38.014;-7.874;2023-02-27T11:13:18;6.88;;;1.40;;
60704;SDS011;46545;38.014;-7.874;2023-02-27T11:15:22;4.70;;;1.52;;
60704;SDS011;46545;38.014;-7.874;2023-02-27T11:21:27;2.78;;;1.45;;
60704;SDS011;46545;38.014;-7.874;2023-02-27T11:23:28;3.58;;;1.30;;
60704;SDS011;46545;38.014;-7.874;2023-02-27T11:25:29;1.33;;;1.20;;
60704;SDS011;46545;38.014;-7.874;2023-02-27T11:27:29;2.22;;;0.85;;
60704;SDS011;46545;38.014;-7.874;2023-02-27T11:29:30;1.98;;;1.13;;
60704;SDS011;46545;38.014;-7.874;2023-02-27T11:31:31;2.22;;;1.10;;
60704;SDS011;46545;38.014;-7.874;2023-02-27T11:33:34;1.20;;;0.90;;
60704;SDS011;46545;38.014;-7.874;2023-02-27T11:35:37;2.50;;;1.17;;
60704;SDS011;46545;38.014;-7.874;2023-02-27T11:37:38;1.75;;;1.20;;
60704;SDS011;46545;38.014;-7.874;2023-02-27T11:39:46;3.50;;;1.77;;
60704;SDS011;46545;38.014;-7.874;2023-02-27T11:41:48;2.95;;;2.65;;
60704;SDS011;46545;38.014;-7.874;2023-02-27T11:43:49;3.85;;;1.23;;
60704;SDS011;46545;38.014;-7.874;2023-02-27T11:45:55;6.47;;;1.30;;
60704;SDS011;46545;38.014;-7.874;2023-02-27T11:47:58;3.60;;;1.30;;
60704;SDS011;46545;38.014;-7.874;2023-02-27T11:52:32;1.73;;;1.10;;
60704;SDS011;46545;38.014;-7.874;2023-02-27T11:54:37;2.30;;;1.85;;
60704;SDS011;46545;38.014;-7.874;2023-02-27T12:01:17;3.70;;;1.45;;
60704;SDS011;46545;38.014;-7.874;2023-02-27T12:03:21;3.42;;;1.42;;
60704;SDS011;46545;38.014;-7.874;2023-02-27T12:05:25;3.35;;;1.63;;
60704;SDS011;46545;38.014;-7.874;2023-02-27T12:08:01;2.72;;;1.50;;
60704;SDS011;46545;38.014;-7.874;2023-02-27T12:11:57;1.80;;;1.35;;
60704;SDS011;46545;38.014;-7.874;2023-02-27T12:14:16;5.25;;;1.40;;
60704;SDS011;46545;38.014;-7.874;2023-02-27T12:16:23;3.88;;;1.95;;
60704;SDS011;46545;38.014;-7.874;2023-02-27T12:20:28;6.50;;;2.70;;
60704;SDS011;46545;38.014;-7.874;2023-02-27T12:22:31;3.50;;;2.00;;
60704;SDS011;46545;38.014;-7.874;2023-02-27T12:24:38;3.20;;;2.00;;
60704;SDS011;46545;38.014;-7.874;2023-02-27T12:26:48;13.10;;;2.08;;
60704;SDS011;46545;38.014;-7.874;2023-02-27T12:29:35;6.28;;;1.88;;
60704;SDS011;46545;38.014;-7.874;2023-02-27T12:33:20;6.13;;;3.15;;
60704;SDS011;46545;38.014;-7.874;2023-02-27T12:35:28;4.32;;;2.00;;
60704;SDS011;46545;38.014;-7.874;2023-02-27T12:37:29;4.20;;;2.17;;
60704;SDS011;46545;38.014;-7.874;2023-02-27T12:39:32;6.55;;;2.65;;
60704;SDS011;46545;38.014;-7.874;2023-02-27T12:44:10;3.58;;;2.22;;
60704;SDS011;46545;38.014;-7.874;2023-02-27T12:46:19;7.55;;;1.95;;
60704;SDS011;46545;38.014;-7.874;2023-02-27T12:48:26;8.82;;;2.00;;
60704;SDS011;46545;38.014;-7.874;2023-02-27T12:54:56;2.50;;;1.48;;
60704;SDS011;46545;38.014;-7.874;2023-02-27T13:03:27;5.00;;;2.22;;
60704;SDS011;46545;38.014;-7.874;2023-02-27T13:07:45;5.40;;;1.85;;
60704;SDS011;46545;38.014;-7.874;2023-02-27T13:09:50;2.13;;;1.30;;
60704;SDS011;46545;38.014;-7.874;2023-02-27T13:11:56;2.25;;;1.30;;
60704;SDS011;46545;38.014;-7.874;2023-02-27T13:14:00;2.47;;;1.25;;
60704;SDS011;46545;38.014;-7.874;2023-02-27T13:16:03;4.40;;;1.50;;
60704;SDS011;46545;38.014;-7.874;2023-02-27T13:20:31;1.90;;;1.02;;
60704;SDS011;46545;38.014;-7.874;2023-02-27T13:22:41;3.40;;;1.63;;
60704;SDS011;46545;38.014;-7.874;2023-02-27T13:24:48;1.38;;;0.63;;
60704;SDS011;46545;38.014;-7.874;2023-02-27T13:27:32;1.75;;;1.08;;
60704;SDS011;46545;38.014;-7.874;2023-02-27T13:29:13;4.38;;;1.30;;
60704;SDS011;46545;38.014;-7.874;2023-02-27T13:35:41;1.60;;;0.60;;
60704;SDS011;46545;38.014;-7.874;2023-02-27T13:37:53;2.25;;;0.93;;
60704;SDS011;46545;38.014;-7.874;2023-02-27T13:39:54;4.45;;;1.30;;
60704;SDS011;46545;38.014;-7.874;2023-02-27T13:41:55;9.75;;;1.48;;
60704;SDS011;46545;38.014;-7.874;2023-02-27T13:43:56;3.45;;;1.42;;
60704;SDS011;46545;38.014;-7.874;2023-02-27T13:46:00;6.90;;;1.20;;
60704;SDS011;46545;38.014;-7.874;2023-02-27T13:48:01;6.25;;;1.45;;
60704;SDS011;46545;38.014;-7.874;2023-02-27T13:50:04;2.78;;;1.30;;
60704;SDS011;46545;38.014;-7.874;2023-02-27T13:54:30;3.20;;;0.90;;
60704;SDS011;46545;38.014;-7.874;2023-02-27T13:56:31;0.95;;;0.80;;
60704;SDS011;46545;38.014;-7.874;2023-02-27T13:58:32;2.58;;;0.77;;
60704;SDS011;46545;38.014;-7.874;2023-02-27T14:00:33;3.15;;;1.20;;
60704;SDS011;46545;38.014;-7.874;2023-02-27T14:02:37;4.13;;;0.70;;
60704;SDS011;46545;38.014;-7.874;2023-02-27T14:04:46;3.22;;;1.00;;
60704;SDS011;46545;38.014;-7.874;2023-02-27T14:06:47;1.25;;;0.70;;
60704;SDS011;46545;38.014;-7.874;2023-02-27T14:08:48;1.75;;;1.10;;
60704;SDS011;46545;38.014;-7.874;2023-02-27T14:10:54;1.65;;;0.80;;
60704;SDS011;46545;38.014;-7.874;2023-02-27T14:12:56;1.42;;;0.85;;
60704;SDS011;46545;38.014;-7.874;2023-02-27T14:14:58;3.22;;;1.30;;
60704;SDS011;46545;38.014;-7.874;2023-02-27T14:16:59;2.15;;;1.08;;
60704;SDS011;46545;38.014;-7.874;2023-02-27T14:19:00;2.42;;;1.00;;
60704;SDS011;46545;38.014;-7.874;2023-02-27T14:21:00;4.13;;;1.33;;